Time;durP1;ratioP1;P1;durP2;ratioP2;P2;SDS_P1;SDS_P2;PMS_P1;PMS_P2;Temp;Humidity;BMP_temperature;BMP_pressure;BME280_temperature;BME280_humidity;BME280_pressure;Samples;Min_cycle;Max_cycle;Signal;HPM_P1;HPM_P2
2021/07/01 00:00:03;;;;;;;6.53;4.40;;;;;;;28.19;38.77;98584.22;5111023;27;20388;-75
2021/07/01 00:02:43;;;;;;;8.18;4.90;;;;;;;28.20;38.69;98581.19;5110882;27;20391;-75
2021/07/01 00:05:21;;;;;;;7.95;4.63;;;;;;;28.14;38.93;98587.72;5110920;27;20393;-75
2021/07/01 00:07:59;;;;;;;7.47;4.75;;;;;;;28.03;39.50;98583.19;5110865;27;20388;-76
2021/07/01 00:10:37;;;;;;;8.02;4.55;;;;;;;27.98;39.52;98572.13;5110950;27;20506;-76
2021/07/01 00:13:16;;;;;;;13.68;4.78;;;;;;;27.98;39.52;98577.59;5110727;27;20384;-76
2021/07/01 00:15:54;;;;;;;9.18;5.20;;;;;;;27.90;39.82;98581.63;5110911;27;20380;-77
2021/07/01 00:18:32;;;;;;;8.50;5.53;;;;;;;27.91;39.87;98596.19;5110654;27;20391;-76
2021/07/01 00:21:10;;;;;;;11.95;5.90;;;;;;;27.85;39.80;98589.81;5110780;27;20384;-77
2021/07/01 00:23:48;;;;;;;14.38;6.65;;;;;;;27.87;39.73;98593.16;5110399;27;20803;-76
2021/07/01 00:26:27;;;;;;;13.52;6.60;;;;;;;27.89;39.88;98590.13;5110972;27;20380;-76
2021/07/01 00:29:05;;;;;;;14.75;7.50;;;;;;;27.88;39.95;98593.97;5110806;27;20744;-74
2021/07/01 00:31:43;;;;;;;13.32;6.82;;;;;;;27.85;40.00;98587.06;5110751;27;20384;-75
2021/07/01 00:34:22;;;;;;;15.90;6.85;;;;;;;27.81;39.95;98594.16;5110791;27;20853;-75
2021/07/01 00:36:59;;;;;;;13.50;7.30;;;;;;;27.80;40.12;98598.81;5110902;27;20393;-75
2021/07/01 00:39:38;;;;;;;14.23;7.10;;;;;;;27.78;40.25;98600.97;5110751;27;20388;-76
2021/07/01 00:42:16;;;;;;;12.93;7.20;;;;;;;27.83;40.46;98598.31;5110722;27;20388;-75
2021/07/01 00:44:54;;;;;;;15.15;7.47;;;;;;;27.73;40.74;98591.81;5110798;27;20388;-75
2021/07/01 00:47:32;;;;;;;12.98;6.70;;;;;;;27.70;40.87;98584.88;5111060;27;20387;-76
2021/07/01 00:50:11;;;;;;;9.85;6.53;;;;;;;27.94;40.74;98587.44;5109734;27;20410;-77
2021/07/01 00:52:49;;;;;;;11.95;5.88;;;;;;;27.91;40.44;98594.28;5110686;27;20380;-76
2021/07/01 00:55:27;;;;;;;9.75;5.63;;;;;;;27.88;40.67;98583.81;5110595;27;20381;-76
2021/07/01 00:58:05;;;;;;;13.80;5.80;;;;;;;27.89;40.25;98587.38;5110712;27;20380;-75
2021/07/01 01:01:02;;;;;;;10.32;4.88;;;;;;;27.91;40.63;98594.28;5110618;27;20391;-75
2021/07/01 01:03:41;;;;;;;10.80;6.20;;;;;;;27.93;40.68;98599.53;5110856;27;20389;-77
2021/07/01 01:06:19;;;;;;;10.15;5.68;;;;;;;27.93;40.72;98592.09;5110820;27;20372;-77
2021/07/01 01:08:59;;;;;;;12.05;5.70;;;;;;;27.89;40.84;98581.91;5110974;27;20384;-77
2021/07/01 01:11:37;;;;;;;9.32;5.45;;;;;;;27.93;41.03;98588.53;5110705;27;20383;-79
2021/07/01 01:14:26;;;;;;;10.35;5.38;;;;;;;27.86;41.11;98585.97;5111072;27;20380;-77
2021/07/01 01:17:16;;;;;;;12.27;4.75;;;;;;;27.80;41.27;98587.81;5172765;27;20137;-78
2021/07/01 01:19:54;;;;;;;10.60;4.97;;;;;;;27.81;41.38;98594.97;5110425;27;20391;-76
2021/07/01 01:22:32;;;;;;;13.50;4.70;;;;;;;27.81;41.23;98589.47;5111164;27;20391;-76
2021/07/01 01:25:12;;;;;;;17.17;4.35;;;;;;;27.81;41.37;98589.47;5110797;27;20379;-76
2021/07/01 01:27:50;;;;;;;7.20;4.50;;;;;;;27.84;41.54;98594.47;5110827;27;20871;-76
2021/07/01 01:30:28;;;;;;;6.07;3.80;;;;;;;27.64;42.05;98599.63;5110783;27;20380;-76
2021/07/01 01:33:30;;;;;;;8.60;4.22;;;;;;;27.64;42.24;98605.09;5110815;27;20739;-76
2021/07/01 01:36:12;;;;;;;6.30;4.78;;;;;;;27.66;42.04;98599.38;5110801;27;20380;-77
2021/07/01 01:38:52;;;;;;;7.93;4.85;;;;;;;27.74;42.05;98605.31;5069773;28;20731;-76
2021/07/01 01:41:38;;;;;;;15.95;5.65;;;;;;;27.75;41.84;98595.97;5110882;27;20128;-77
2021/07/01 01:44:16;;;;;;;10.57;5.35;;;;;;;27.77;42.02;98604.81;5070391;28;20383;-76
2021/07/01 01:46:54;;;;;;;10.55;6.00;;;;;;;27.80;42.15;98593.31;5069961;28;20394;-78
2021/07/01 01:49:32;;;;;;;9.95;5.80;;;;;;;27.83;42.14;98594.72;5090620;27;20393;-77
2021/07/01 01:52:11;;;;;;;11.05;6.40;;;;;;;27.93;42.12;98592.09;5070154;27;20394;-76
2021/07/01 01:54:49;;;;;;;13.27;6.30;;;;;;;27.91;42.42;98591.53;5110856;27;20387;-76
2021/07/01 01:57:28;;;;;;;13.55;6.55;;;;;;;27.95;42.75;98583.63;5172441;27;20134;-77
2021/07/01 02:00:27;;;;;;;16.08;6.40;;;;;;;28.00;42.27;98587.25;5110582;27;20391;-77
2021/07/01 02:03:08;;;;;;;13.20;5.47;;;;;;;28.15;42.12;98581.13;5110615;27;20743;-78
2021/07/01 02:06:03;;;;;;;9.93;5.70;;;;;;;28.15;42.31;98586.63;5110032;27;20387;-76
2021/07/01 02:08:41;;;;;;;10.50;5.50;;;;;;;28.16;42.30;98596.53;5110788;27;20385;-79
2021/07/01 02:11:22;;;;;;;7.72;5.53;;;;;;;28.19;42.10;98590.53;5110816;27;20882;-77
2021/07/01 02:14:00;;;;;;;8.13;5.28;;;;;;;28.19;42.41;98596.03;5110602;27;20129;-77
2021/07/01 02:16:58;;;;;;;10.77;5.65;;;;;;;28.22;42.52;98589.19;5110744;27;20376;-78
2021/07/01 02:19:37;;;;;;;15.05;5.00;;;;;;;28.15;42.79;98591.31;5110653;27;20743;-76
2021/07/01 02:22:19;;;;;;;12.57;4.93;;;;;;;28.17;43.10;98587.22;5172589;27;20179;-76
2021/07/01 02:24:58;;;;;;;13.52;4.82;;;;;;;28.16;43.16;98590.22;5110773;27;20739;-75
2021/07/01 02:27:37;;;;;;;10.82;4.60;;;;;;;28.32;42.84;98597.53;5110565;27;20399;-77
2021/07/01 02:30:17;;;;;;;7.50;4.18;;;;;;;28.33;42.99;98596.47;5172616;27;20138;-77
2021/07/01 02:32:54;;;;;;;7.78;4.57;;;;;;;28.30;43.23;98608.81;5110717;27;20399;-77
2021/07/01 02:35:32;;;;;;;13.48;4.30;;;;;;;28.37;43.08;98605.06;5110912;27;20387;-77
2021/07/01 02:38:28;;;;;;;6.55;4.22;;;;;;;28.56;42.95;98617.41;5110685;27;20368;-77
2021/07/01 02:41:16;;;;;;;14.13;5.25;;;;;;;28.58;42.94;98609.72;5070012;28;20371;-78
2021/07/01 02:43:56;;;;;;;9.75;4.43;;;;;;;28.62;42.84;98613.59;5193680;27;20658;-78
2021/07/01 02:46:54;;;;;;;13.73;4.90;;;;;;;28.47;43.49;98618.94;5090293;27;20168;-76
2021/07/01 02:49:40;;;;;;;13.48;5.07;;;;;;;28.49;43.68;98623.09;5110378;27;20135;-76
2021/07/01 02:52:24;;;;;;;26.92;5.75;;;;;;;28.54;43.69;98616.81;5110597;27;20376;-76
2021/07/01 02:55:06;;;;;;;12.15;5.82;;;;;;;28.54;43.65;98620.38;5110588;27;20387;-77
2021/07/01 02:57:57;;;;;;;12.10;5.57;;;;;;;28.58;43.55;98620.72;5109994;27;20435;-76
2021/07/01 03:00:35;;;;;;;14.35;6.00;;;;;;;28.59;43.83;98622.38;5110904;27;20376;-76
2021/07/01 03:03:17;;;;;;;17.92;6.90;;;;;;;28.63;43.76;98634.53;5110607;27;20376;-77
2021/07/01 03:06:06;;;;;;;28.38;9.02;;;;;;;28.59;43.93;98638.88;5110399;27;20376;-77
2021/07/01 03:08:46;;;;;;;19.85;8.68;;;;;;;28.55;44.34;98635.00;5110886;27;20381;-77
2021/07/01 03:11:27;;;;;;;19.23;8.75;;;;;;;28.21;45.27;98632.34;5110499;27;20384;-77
2021/07/01 03:14:07;;;;;;;21.05;10.15;;;;;;;28.26;45.72;98634.31;5110475;27;20379;-78
2021/07/01 03:16:45;;;;;;;26.45;8.48;;;;;;;28.51;45.39;98625.56;5110327;27;20384;-77
2021/07/01 03:19:23;;;;;;;26.15;8.77;;;;;;;28.74;45.03;98625.31;5110489;27;20894;-77
2021/07/01 03:22:37;;;;;;;14.77;7.53;;;;;;;28.93;44.49;98627.72;5110591;27;20376;-76
2021/07/01 03:25:15;;;;;;;20.27;7.38;;;;;;;29.15;43.79;98624.91;5070177;27;20387;-76
2021/07/01 03:27:53;;;;;;;16.77;6.95;;;;;;;29.46;43.28;98620.50;5110651;27;20384;-77
2021/07/01 03:30:31;;;;;;;16.35;6.80;;;;;;;29.63;43.12;98615.69;5173053;27;20403;-77
2021/07/01 03:33:09;;;;;;;17.40;5.90;;;;;;;29.65;43.13;98613.53;5110454;27;20376;-76
2021/07/01 03:35:49;;;;;;;15.77;6.10;;;;;;;29.77;42.32;98616.06;5090411;27;20382;-76
2021/07/01 03:38:45;;;;;;;17.60;6.47;;;;;;;29.69;42.56;98611.91;5110711;27;20387;-77
2021/07/01 03:41:54;;;;;;;52.83;8.07;;;;;;;29.72;42.92;98625.16;5111045;27;20700;-77
2021/07/01 03:44:32;;;;;;;16.38;6.75;;;;;;;29.80;42.85;98612.78;5110084;27;20825;-77
2021/07/01 03:47:10;;;;;;;15.98;6.15;;;;;;;29.79;42.78;98613.03;5107610;27;20772;-77
2021/07/01 03:49:48;;;;;;;8.80;6.10;;;;;;;29.87;42.64;98618.09;5100453;27;20385;-78
2021/07/01 03:52:59;;;;;;;21.08;7.18;;;;;;;29.79;43.11;98613.03;5110412;27;20381;-77
2021/07/01 03:55:37;;;;;;;19.95;6.60;;;;;;;29.84;43.11;98616.69;5110823;27;20504;-78
2021/07/01 03:58:15;;;;;;;21.30;6.60;;;;;;;29.83;43.27;98614.19;5110464;27;20385;-77
2021/07/01 04:01:00;;;;;;;13.88;5.97;;;;;;;29.89;43.49;98624.97;5172812;27;20188;-77
2021/07/01 04:03:38;;;;;;;14.30;5.82;;;;;;;29.95;43.08;98620.31;5070316;28;20379;-78
2021/07/01 04:06:29;;;;;;;16.40;5.43;;;;;;;30.05;42.92;98628.63;5110597;27;20387;-76
2021/07/01 04:09:07;;;;;;;23.13;6.28;;;;;;;30.09;42.53;98596.72;5110497;27;20901;-76
2021/07/01 04:11:53;;;;;;;19.20;5.03;;;;;;;30.12;42.06;98618.19;5110655;27;20132;-76
2021/07/01 04:14:31;;;;;;;17.33;5.65;;;;;;;30.05;42.38;98614.84;5110514;27;20403;-76
2021/07/01 04:17:27;;;;;;;19.77;5.38;;;;;;;30.23;42.20;98621.88;5110912;27;20369;-77
2021/07/01 04:20:25;;;;;;;13.77;5.40;;;;;;;30.31;42.12;98620.53;5110534;27;20744;-77
2021/07/01 04:23:33;;;;;;;22.05;5.60;;;;;;;30.38;42.32;98615.59;5110429;27;20158;-78
2021/07/01 04:26:42;;;;;;;22.10;5.20;;;;;;;30.58;41.72;98623.97;5069963;28;20382;-78
2021/07/01 04:29:33;;;;;;;36.38;6.80;;;;;;;30.76;41.83;98621.81;5110486;27;20364;-79
2021/07/01 04:32:11;;;;;;;22.98;5.85;;;;;;;30.93;41.44;98611.38;5110736;27;20387;-79
2021/07/01 04:34:49;;;;;;;15.88;5.80;;;;;;;30.96;41.22;98611.66;5110596;27;20380;-76
2021/07/01 04:37:29;;;;;;;11.25;5.07;;;;;;;31.03;41.21;98600.38;5110461;27;20881;-77
2021/07/01 04:40:10;;;;;;;12.68;5.40;;;;;;;31.14;41.03;98607.56;5172710;27;20517;-77
2021/07/01 04:42:57;;;;;;;12.95;5.63;;;;;;;30.94;40.95;98608.34;5110767;27;20371;-78
2021/07/01 04:45:35;;;;;;;24.83;5.80;;;;;;;31.09;40.97;98604.78;5110970;27;20751;-79
2021/07/01 04:48:14;;;;;;;14.73;5.72;;;;;;;31.18;40.95;98594.84;5172408;27;19923;-79
2021/07/01 04:50:53;;;;;;;19.58;6.30;;;;;;;31.35;40.70;98591.84;5110774;27;20395;-78
2021/07/01 04:53:49;;;;;;;25.35;6.20;;;;;;;31.34;40.56;98603.19;5108209;27;20454;-78
2021/07/01 04:56:53;;;;;;;16.83;5.20;;;;;;;31.52;40.18;98602.63;5099773;27;20388;-80
2021/07/01 04:59:32;;;;;;;17.35;5.30;;;;;;;31.40;39.97;98605.63;5110613;27;20761;-81
2021/07/01 05:02:10;;;;;;;12.25;5.25;;;;;;;31.41;40.10;98606.50;5110694;27;20886;-78
2021/07/01 05:05:07;;;;;;;11.55;5.43;;;;;;;31.57;40.04;98608.13;5069638;27;20383;-77
2021/07/01 05:07:45;;;;;;;17.38;5.10;;;;;;;31.38;40.23;98598.75;5109989;27;20855;-77
2021/07/01 05:10:35;;;;;;;13.23;5.50;;;;;;;31.35;40.69;98602.06;5009600;28;20429;-79
2021/07/01 05:13:24;;;;;;;13.00;5.72;;;;;;;31.41;40.16;98601.78;5150643;27;20879;-80
2021/07/01 05:16:01;;;;;;;14.77;5.28;;;;;;;31.48;40.07;98597.91;5103328;27;1457116;-83
2021/07/01 05:18:39;;;;;;;16.10;5.20;;;;;;;31.76;39.98;98607.56;5111871;27;20391;-80
2021/07/01 05:21:30;;;;;;;18.42;5.97;;;;;;;32.09;39.60;98606.13;5070165;28;20371;-79
2021/07/01 05:24:26;;;;;;;12.45;5.20;;;;;;;32.28;38.88;98600.81;5172901;27;20118;-80
2021/07/01 05:27:31;;;;;;;16.02;5.32;;;;;;;32.28;39.15;98609.09;5110531;27;20391;-83
2021/07/01 05:30:28;;;;;;;10.07;5.20;;;;;;;32.36;39.15;98605.75;5172537;27;19923;-79
2021/07/01 05:33:24;;;;;;;14.38;5.63;;;;;;;32.47;39.15;98612.91;5110536;27;20369;-80
2021/07/01 05:36:04;;;;;;;19.92;5.50;;;;;;;32.49;38.67;98610.69;5069828;28;20390;-80
2021/07/01 05:38:42;;;;;;;12.88;5.43;;;;;;;32.37;39.15;98615.69;5110618;27;20388;-80
2021/07/01 05:41:22;;;;;;;18.35;5.55;;;;;;;32.26;39.02;98616.84;5111024;27;20901;-85
2021/07/01 05:44:03;;;;;;;11.85;5.00;;;;;;;32.29;38.67;98622.63;5110546;27;20720;-84
2021/07/01 05:46:59;;;;;;;8.32;5.57;;;;;;;32.25;38.71;98631.78;5091351;27;20397;-83
2021/07/01 05:49:38;;;;;;;13.27;5.70;;;;;;;32.27;38.93;98641.47;5110934;27;20756;-84
2021/07/01 05:52:27;;;;;;;14.02;6.25;;;;;;;32.12;39.47;98641.47;5111218;27;20391;-82
2021/07/01 05:55:06;;;;;;;11.55;6.35;;;;;;;32.02;39.96;98642.34;5172321;27;20178;-85
2021/07/01 05:57:45;;;;;;;13.25;7.00;;;;;;;32.12;39.62;98636.81;5110178;27;20388;-84
2021/07/01 06:00:24;;;;;;;17.02;8.05;;;;;;;32.25;39.26;98638.13;5091168;27;20389;-82
2021/07/01 06:03:01;;;;;;;23.27;8.45;;;;;;;32.38;38.85;98637.56;5089523;27;20385;-86
2021/07/01 06:05:43;;;;;;;19.70;8.38;;;;;;;32.41;38.42;98644.47;5159427;27;19934;-84
2021/07/01 06:08:40;;;;;;;16.50;8.23;;;;;;;31.98;39.18;98644.03;5110088;27;20372;-84
2021/07/01 06:11:18;;;;;;;22.38;9.13;;;;;;;32.00;39.05;98641.78;5069847;28;20383;-83
2021/07/01 06:13:56;;;;;;;23.38;9.15;;;;;;;31.85;39.58;98636.25;5110622;27;20395;-83
2021/07/01 06:16:36;;;;;;;19.05;9.30;;;;;;;31.67;39.74;98630.22;5110821;27;20380;-83
2021/07/01 06:19:14;;;;;;;25.52;9.27;;;;;;;31.52;40.41;98638.53;5070123;28;20386;-83
2021/07/01 06:22:06;;;;;;;21.63;9.75;;;;;;;31.35;40.75;98630.50;5172204;27;20496;-83
2021/07/01 06:24:43;;;;;;;32.20;11.02;;;;;;;31.23;40.99;98627.16;5172696;27;20491;-84
2021/07/01 06:27:32;;;;;;;28.60;10.43;;;;;;;31.21;41.33;98624.66;5110544;27;20376;-84
2021/07/01 06:30:18;;;;;;;24.98;10.77;;;;;;;31.04;41.66;98613.06;5110560;27;20380;-83
2021/07/01 06:32:55;;;;;;;29.00;11.15;;;;;;;30.78;42.50;98612.19;5172780;27;20170;-83
2021/07/01 06:35:33;;;;;;;26.25;11.23;;;;;;;31.03;42.37;98621.59;5110208;27;20380;-83
2021/07/01 06:38:17;;;;;;;31.42;11.02;;;;;;;31.11;42.51;98619.16;5110565;27;20365;-82
2021/07/01 06:41:14;;;;;;;25.88;12.13;;;;;;;31.00;43.54;98625.75;5090157;28;20377;-81
2021/07/01 06:44:27;;;;;;;24.05;11.52;;;;;;;30.59;45.54;98603.56;5110516;27;20392;-83
2021/07/01 06:47:36;;;;;;;21.88;11.77;;;;;;;30.57;45.36;98608.50;5110247;27;20388;-82
2021/07/01 06:50:33;;;;;;;26.25;13.02;;;;;;;30.67;45.18;98591.97;5110370;27;20731;-82
2021/07/01 06:53:44;;;;;;;25.23;13.82;;;;;;;30.45;45.79;98599.63;5110947;27;20403;-82
2021/07/01 06:56:25;;;;;;;22.05;11.63;;;;;;;30.56;46.58;98606.84;5110653;27;20399;-82
2021/07/01 06:59:03;;;;;;;34.58;12.05;;;;;;;30.40;46.69;98608.72;5110521;27;20380;-83
2021/07/01 07:01:41;;;;;;;18.60;10.88;;;;;;;30.08;46.42;98595.03;5110284;27;20396;-82
2021/07/01 07:04:20;;;;;;;23.30;11.70;;;;;;;29.96;46.62;98608.19;5192658;27;20220;-83
2021/07/01 07:06:58;;;;;;;28.67;12.10;;;;;;;29.94;47.23;98618.66;5110634;27;20380;-83
2021/07/01 07:09:38;;;;;;;27.65;11.98;;;;;;;29.89;47.94;98619.44;5070072;28;20391;-83
2021/07/01 07:12:28;;;;;;;23.98;10.82;;;;;;;29.86;47.91;98619.16;5110900;27;20927;-82
2021/07/01 07:15:08;;;;;;;18.58;11.95;;;;;;;29.79;48.40;98629.56;5131164;27;20177;-83
2021/07/01 07:17:49;;;;;;;25.23;11.05;;;;;;;29.83;48.52;98625.22;5123295;27;20381;-84
2021/07/01 07:20:27;;;;;;;21.35;11.82;;;;;;;29.87;48.29;98626.34;5110635;27;20380;-82
2021/07/01 07:23:05;;;;;;;23.23;11.55;;;;;;;29.91;48.02;98635.72;5110769;27;20391;-82
2021/07/01 07:25:44;;;;;;;19.77;11.93;;;;;;;29.97;47.81;98643.75;5193772;27;20224;-82
2021/07/01 07:28:23;;;;;;;28.88;12.88;;;;;;;30.14;47.46;98626.22;5172671;27;20134;-82
2021/07/01 07:31:03;;;;;;;22.00;12.32;;;;;;;30.35;47.64;98649.22;5131275;27;20173;-83
2021/07/01 07:33:41;;;;;;;24.77;11.93;;;;;;;30.42;46.90;98645.13;5112325;27;20380;-84
2021/07/01 07:36:21;;;;;;;27.83;12.50;;;;;;;30.57;46.67;98647.09;5134915;27;20397;-85
2021/07/01 07:39:01;;;;;;;21.60;12.13;;;;;;;30.76;46.53;98649.41;5113145;27;20391;-84
2021/07/01 07:41:41;;;;;;;32.33;13.40;;;;;;;30.77;47.08;98656.59;5110764;27;20380;-85
2021/07/01 07:44:19;;;;;;;29.40;11.63;;;;;;;30.90;46.00;98662.44;5110671;27;20402;-85
2021/07/01 07:46:57;;;;;;;25.20;11.48;;;;;;;30.93;45.71;98655.53;5110605;27;20898;-84
2021/07/01 07:49:35;;;;;;;26.95;12.18;;;;;;;31.34;45.13;98650.13;5110498;27;20735;-83
2021/07/01 07:52:14;;;;;;;26.45;10.85;;;;;;;31.64;44.42;98644.59;5131528;27;20424;-83
2021/07/01 07:54:54;;;;;;;21.15;10.55;;;;;;;31.87;43.96;98625.81;5110594;27;20391;-83
2021/07/01 07:57:33;;;;;;;22.10;10.13;;;;;;;32.08;44.04;98597.00;5193709;27;20122;-84
2021/07/01 08:00:12;;;;;;;16.88;9.55;;;;;;;32.57;42.62;98600.97;5131493;27;20390;-83
2021/07/01 08:02:56;;;;;;;23.83;10.00;;;;;;;32.97;41.86;98610.19;5110685;27;20365;-83
2021/07/01 08:05:35;;;;;;;15.32;8.75;;;;;;;33.15;41.60;98623.34;5161144;27;20167;-84
2021/07/01 08:08:15;;;;;;;19.88;9.23;;;;;;;33.51;40.73;98623.94;5110576;27;20395;-83
2021/07/01 08:10:53;;;;;;;21.40;9.52;;;;;;;33.65;41.01;98614.91;5131331;27;20330;-83
2021/07/01 08:13:32;;;;;;;15.60;8.45;;;;;;;34.25;39.80;98623.75;5172561;27;20138;-83
2021/07/01 08:16:11;;;;;;;18.83;8.55;;;;;;;34.85;38.94;98626.06;5172445;27;20580;-83
2021/07/01 08:18:48;;;;;;;27.50;8.43;;;;;;;35.52;38.10;98621.16;5110765;27;20403;-82
2021/07/01 08:21:27;;;;;;;15.57;7.60;;;;;;;35.68;36.94;98618.94;5110800;27;20380;-84
2021/07/01 08:24:05;;;;;;;11.55;6.80;;;;;;;35.22;37.20;98611.34;5110755;27;20391;-83
2021/07/01 08:26:43;;;;;;;15.30;7.40;;;;;;;34.59;38.61;98620.03;5110798;27;20376;-83
2021/07/01 08:29:22;;;;;;;13.40;7.95;;;;;;;34.00;40.03;98616.53;5193859;27;20208;-84
2021/07/01 08:32:05;;;;;;;15.30;7.13;;;;;;;33.95;39.88;98625.69;5172938;27;19923;-83
2021/07/01 08:34:45;;;;;;;23.13;7.57;;;;;;;33.57;40.46;98636.59;5110757;27;20364;-83
2021/07/01 08:37:23;;;;;;;18.95;7.75;;;;;;;33.61;40.29;98625.75;5110537;27;20579;-84
2021/07/01 08:40:09;;;;;;;17.88;7.88;;;;;;;33.21;41.40;98621.34;5090263;28;20191;-84
2021/07/01 08:42:52;;;;;;;16.85;7.70;;;;;;;33.44;41.43;98626.16;5132127;27;20407;-84
2021/07/01 08:45:44;;;;;;;13.02;7.65;;;;;;;34.21;39.96;98619.91;5111696;27;20715;-83
2021/07/01 08:48:24;;;;;;;13.90;7.80;;;;;;;34.80;39.18;98629.72;5151538;27;20202;-84
2021/07/01 08:51:02;;;;;;;18.67;7.90;;;;;;;35.08;38.68;98624.34;5111099;27;20380;-82
2021/07/01 08:54:12;;;;;;;17.35;8.05;;;;;;;34.99;38.57;98616.72;5172773;27;20216;-84
2021/07/01 08:56:53;;;;;;;17.52;7.95;;;;;;;34.62;38.79;98617.47;5111377;27;20395;-83
2021/07/01 08:59:56;;;;;;;12.55;6.90;;;;;;;34.16;39.95;98625.53;5071149;28;20391;-83
2021/07/01 09:02:44;;;;;;;16.25;5.78;;;;;;;34.10;39.92;98635.00;5110885;27;20395;-83
2021/07/01 09:05:23;;;;;;;9.63;5.15;;;;;;;33.68;40.62;98636.50;5110624;27;20396;-83
2021/07/01 09:08:02;;;;;;;21.55;5.53;;;;;;;33.07;41.03;98615.66;5110840;27;20384;-84
2021/07/01 09:10:51;;;;;;;11.98;4.25;;;;;;;32.48;42.55;98630.34;5172735;27;20274;-84
2021/07/01 09:13:29;;;;;;;10.45;4.72;;;;;;;32.21;43.32;98625.16;5110901;27;20384;-83
2021/07/01 09:16:07;;;;;;;13.10;4.50;;;;;;;32.81;42.64;98623.25;5110899;27;20391;-84
2021/07/01 09:18:46;;;;;;;10.85;4.43;;;;;;;33.52;41.57;98633.88;5151748;27;20218;-85
2021/07/01 09:21:22;;;;;;;14.93;5.03;;;;;;;33.72;40.86;98627.31;5102617;27;1485911;-85
2021/07/01 09:24:02;;;;;;;14.63;4.30;;;;;;;33.61;40.77;98625.75;5110825;27;20389;-84
2021/07/01 09:26:41;;;;;;;13.95;4.03;;;;;;;33.38;41.10;98632.84;5131066;27;20383;-83
2021/07/01 09:29:18;;;;;;;11.20;3.92;;;;;;;33.43;41.21;98613.41;5069938;28;20374;-83
2021/07/01 09:31:57;;;;;;;11.95;4.05;;;;;;;33.19;41.55;98623.59;5194000;27;20217;-84
2021/07/01 09:34:35;;;;;;;12.60;4.00;;;;;;;33.13;41.93;98620.84;5110760;27;20709;-83
2021/07/01 09:37:14;;;;;;;8.73;4.30;;;;;;;33.12;42.30;98621.97;5152183;27;20126;-83
2021/07/01 09:39:51;;;;;;;11.68;3.90;;;;;;;32.97;42.74;98621.25;5110828;27;20391;-83
2021/07/01 09:42:31;;;;;;;14.15;4.10;;;;;;;33.16;42.09;98626.94;5172953;27;20518;-83
2021/07/01 09:45:11;;;;;;;9.93;4.05;;;;;;;33.24;41.65;98620.78;5131317;27;20472;-83
2021/07/01 09:48:10;;;;;;;11.40;3.92;;;;;;;33.50;41.28;98613.13;5110769;27;20407;-84
2021/07/01 09:50:49;;;;;;;12.38;4.05;;;;;;;33.52;41.30;98603.41;5172959;27;20126;-85
2021/07/01 09:53:28;;;;;;;19.50;4.32;;;;;;;33.46;41.66;98609.25;5152099;27;20702;-84
2021/07/01 09:56:09;;;;;;;18.83;4.10;;;;;;;33.76;40.95;98585.97;5193634;27;20217;-85
2021/07/01 09:58:52;;;;;;;9.45;3.90;;;;;;;34.06;40.26;98588.44;5110511;27;20406;-84
2021/07/01 10:01:32;;;;;;;12.10;4.30;;;;;;;34.73;39.64;98595.97;5193930;27;20113;-84
2021/07/01 10:04:10;;;;;;;10.05;3.80;;;;;;;35.53;38.31;98592.25;5110729;27;20388;-85
2021/07/01 10:07:05;;;;;;;7.15;3.30;;;;;;;35.56;37.90;98590.81;5110442;27;20380;-84
2021/07/01 10:09:44;;;;;;;10.32;3.90;;;;;;;35.46;37.92;98589.00;5110815;27;20384;-84
2021/07/01 10:12:22;;;;;;;9.93;3.80;;;;;;;35.49;37.50;98600.34;5110599;27;20380;-84
2021/07/01 10:15:05;;;;;;;9.98;4.10;;;;;;;35.27;37.51;98606.53;5110602;27;20380;-85
2021/07/01 10:17:43;;;;;;;6.93;3.70;;;;;;;35.62;36.94;98609.03;5173237;27;20178;-85
2021/07/01 10:20:32;;;;;;;9.63;3.97;;;;;;;35.68;36.68;98599.47;5173098;27;20683;-83
2021/07/01 10:23:29;;;;;;;9.95;3.50;;;;;;;36.08;35.76;98602.66;5131449;27;20124;-84
2021/07/01 10:26:00;;;;;;;9.00;4.07;;;;;;;36.95;34.41;98610.84;5110877;28;20051;-84
2021/07/01 10:28:39;;;;;;;10.38;4.60;;;;;;;37.73;33.14;98607.00;5153085;27;20377;-86
2021/07/01 10:31:17;;;;;;;10.02;3.95;;;;;;;38.49;32.27;98618.06;5111680;27;20403;-84
2021/07/01 10:33:59;;;;;;;11.23;3.33;;;;;;;38.89;31.34;98612.41;5111335;27;20133;-84
2021/07/01 10:36:39;;;;;;;7.78;3.50;;;;;;;38.44;31.34;98609.81;5176785;27;20126;-83
2021/07/01 10:39:28;;;;;;;11.43;3.65;;;;;;;38.84;30.83;98613.38;5138529;27;20383;-83
2021/07/01 10:42:06;;;;;;;14.23;3.80;;;;;;;38.90;30.82;98611.25;5112842;27;20384;-84
2021/07/01 10:44:45;;;;;;;7.90;3.10;;;;;;;39.43;29.78;98624.94;5110926;27;20403;-83
2021/07/01 10:47:27;;;;;;;4.28;3.00;;;;;;;40.13;28.18;98614.41;5090862;27;20389;-83
2021/07/01 10:50:22;;;;;;;10.63;3.33;;;;;;;40.02;28.04;98605.56;5110967;27;20689;-84
2021/07/01 10:53:00;;;;;;;7.03;2.95;;;;;;;39.44;28.56;98611.75;5110626;27;20376;-84
2021/07/01 10:55:41;;;;;;;5.45;2.58;;;;;;;39.62;28.15;98602.19;5152044;27;20381;-85
2021/07/01 10:58:19;;;;;;;7.28;3.20;;;;;;;39.53;29.12;98609.75;5110663;27;20890;-85
2021/07/01 11:00:59;;;;;;;9.07;3.30;;;;;;;38.96;29.45;98605.16;5110687;27;20399;-85
2021/07/01 11:03:37;;;;;;;15.32;3.67;;;;;;;39.43;29.13;98615.72;5110911;27;20395;-84
2021/07/01 11:06:15;;;;;;;18.30;3.95;;;;;;;40.40;27.88;98612.31;5110618;27;20124;-85
2021/07/01 11:08:54;;;;;;;9.90;2.92;;;;;;;40.91;26.69;98611.19;5110726;27;20383;-84
2021/07/01 11:11:37;;;;;;;8.45;3.28;;;;;;;41.02;26.20;98600.41;5172891;27;20130;-84
2021/07/01 11:14:17;;;;;;;7.05;3.10;;;;;;;40.87;26.07;98620.63;5070718;28;20371;-85
2021/07/01 11:16:55;;;;;;;5.60;2.65;;;;;;;40.39;26.18;98605.06;5110978;27;20384;-84
2021/07/01 11:19:43;;;;;;;7.45;3.10;;;;;;;40.54;26.23;98601.69;5110512;27;20383;-84
2021/07/01 11:22:21;;;;;;;6.55;2.97;;;;;;;41.25;25.51;98598.06;5194361;27;20367;-86
2021/07/01 11:24:59;;;;;;;7.10;3.33;;;;;;;41.40;25.03;98599.41;5110781;27;20388;-85
2021/07/01 11:27:37;;;;;;;7.28;3.00;;;;;;;40.71;25.71;98607.22;5110532;27;20909;-86
2021/07/01 11:30:25;;;;;;;7.20;2.97;;;;;;;40.03;26.63;98598.78;5110857;27;20381;-85
2021/07/01 11:33:16;;;;;;;7.55;2.90;;;;;;;40.16;26.66;98590.53;5111276;27;20380;-85
2021/07/01 11:36:11;;;;;;;10.70;2.70;;;;;;;40.41;26.53;98583.16;5131310;27;20173;-84
2021/07/01 11:38:50;;;;;;;7.82;3.08;;;;;;;41.29;25.12;98575.75;5172875;27;20189;-83
2021/07/01 11:41:27;;;;;;;11.63;2.92;;;;;;;42.06;24.77;98584.53;5111234;27;20871;-85
2021/07/01 11:44:06;;;;;;;7.57;2.70;;;;;;;42.74;23.56;98587.59;5131320;27;20746;-85
2021/07/01 11:46:44;;;;;;;9.80;2.78;;;;;;;42.78;23.67;98584.88;5090377;27;20381;-83
2021/07/01 11:49:35;;;;;;;7.18;2.85;;;;;;;42.05;24.43;98592.13;5110548;27;20380;-84
2021/07/01 11:52:14;;;;;;;6.63;2.70;;;;;;;41.68;24.86;98572.41;5131258;27;20383;-85
2021/07/01 11:54:53;;;;;;;5.35;2.65;;;;;;;42.60;23.97;98578.69;5172954;27;19923;-84
2021/07/01 11:57:30;;;;;;;12.48;2.95;;;;;;;42.94;23.68;98591.41;5110699;27;20388;-84
2021/07/01 12:00:08;;;;;;;7.97;3.05;;;;;;;42.90;23.92;98590.47;5111086;27;20380;-84
2021/07/01 12:02:54;;;;;;;7.18;3.08;;;;;;;42.12;24.62;98581.13;5172990;27;20448;-84
2021/07/01 12:05:32;;;;;;;7.03;2.72;;;;;;;41.89;25.07;98583.56;5110594;27;20133;-83
2021/07/01 12:08:09;;;;;;;6.90;3.17;;;;;;;42.18;24.74;98585.34;5110991;27;20704;-83
2021/07/01 12:10:47;;;;;;;14.20;2.90;;;;;;;41.37;25.31;98574.84;5070318;27;20749;-83
2021/07/01 12:13:31;;;;;;;6.30;2.95;;;;;;;41.70;24.95;98575.66;5110721;27;20391;-83
2021/07/01 12:16:15;;;;;;;6.22;2.70;;;;;;;41.88;24.72;98572.69;5131395;27;20124;-84
2021/07/01 12:18:58;;;;;;;10.63;3.08;;;;;;;42.33;24.11;98580.25;5111193;27;20732;-84
2021/07/01 12:21:36;;;;;;;7.38;2.70;;;;;;;42.04;24.79;98575.63;5110999;27;20743;-83
2021/07/01 12:24:20;;;;;;;7.13;3.05;;;;;;;42.67;24.24;98579.75;5110745;27;20384;-84
2021/07/01 12:26:59;;;;;;;6.78;2.90;;;;;;;43.06;23.98;98574.47;5151946;27;19926;-84
2021/07/01 12:29:46;;;;;;;4.15;2.58;;;;;;;43.51;23.69;98561.31;5110977;27;20387;-84
2021/07/01 12:32:27;;;;;;;9.60;3.10;;;;;;;44.06;22.62;98565.19;5111152;27;20368;-84
2021/07/01 12:35:45;;;;;;;8.00;2.80;;;;;;;43.50;23.33;98568.94;5136313;27;20355;-84
2021/07/01 12:38:24;;;;;;;6.10;2.70;;;;;;;43.94;23.17;98568.94;5161178;27;20581;-83